Terminal Aerodrome Forecast
Issued by NWS Pocatello, ID

Home | Current Version | Previous Version | Text Only | Print | Product List | Glossary On
Versions: 1 2 3 4 5 6 7 8 9 10 11 12 13 14 15 16 17 18 19 20 21 22 23 24 25 26 27 28
000
FTUS45 KPIH 290400 AAB
TAFIDA
TAF AMD
KIDA 290424Z 2904/2924 VRB03KT 6SM BR OVC008
     FM290800 35004KT 1/2SM FZFG VV003
     FM291900 36005KT 2SM BR OVC004
     FM292100 36005KT 6SM BR BKN006=

USA.gov is the U.S. government's official web portal to all federal, state and local government web resources and services.